Time;durP1;ratioP1;P1;durP2;ratioP2;P2;SDS_P1;SDS_P2;PMS_P1;PMS_P2;Temp;Humidity;BMP_temperature;BMP_pressure;BME280_temperature;BME280_humidity;BME280_pressure;Samples;Min_cycle;Max_cycle;Signal;HPM_P1;HPM_P2
2021/08/17 00:00:54;;;;;;;10.80;3.20;;;;;;;;;;5076601;28;20444;-73
2021/08/17 00:03:21;;;;;;;8.33;3.63;;;;;;;;;;5076434;28;21001;-73
2021/08/17 00:05:48;;;;;;;12.43;3.17;;;;;;;;;;5075778;28;20502;-72
2021/08/17 00:08:16;;;;;;;6.33;2.80;;;;;;;;;;5073079;28;20596;-73
2021/08/17 00:10:44;;;;;;;12.00;3.33;;;;;;;;;;5075719;28;20448;-73
2021/08/17 00:13:11;;;;;;;13.43;3.80;;;;;;;;;;5075640;28;20440;-73
2021/08/17 00:15:38;;;;;;;11.10;3.03;;;;;;;;;;5075467;28;20448;-75
2021/08/17 00:18:06;;;;;;;10.50;3.20;;;;;;;;;;5074074;28;20449;-74
2021/08/17 00:20:33;;;;;;;13.00;3.10;;;;;;;;;;5074195;28;20444;-74
2021/08/17 00:23:00;;;;;;;12.40;3.00;;;;;;;;;;5075143;28;20979;-74
2021/08/17 00:25:27;;;;;;;13.33;4.60;;;;;;;;;;5075975;28;20836;-73
2021/08/17 00:27:56;;;;;;;9.60;2.90;;;;;;;;;;5075349;28;20447;-73
2021/08/17 00:30:23;;;;;;;7.00;3.63;;;;;;;;;;5075727;28;20446;-75
2021/08/17 00:32:50;;;;;;;8.20;2.93;;;;;;;;;;5074765;28;20860;-74
2021/08/17 00:35:17;;;;;;;10.53;3.33;;;;;;;;;;5075291;28;20524;-74
2021/08/17 00:37:45;;;;;;;6.37;2.53;;;;;;;;;;5073436;28;20450;-74
2021/08/17 00:40:12;;;;;;;10.20;3.57;;;;;;;;;;5075187;28;20441;-76
2021/08/17 00:42:40;;;;;;;8.90;3.10;;;;;;;;;;5075066;28;20433;-74
2021/08/17 00:45:10;;;;;;;5.77;2.93;;;;;;;;;;5074458;28;20471;-74
2021/08/17 00:47:37;;;;;;;9.27;3.57;;;;;;;;;;5074707;28;20440;-74
2021/08/17 00:50:05;;;;;;;6.20;3.30;;;;;;;;;;5075032;28;20445;-75
2021/08/17 00:52:32;;;;;;;9.13;2.77;;;;;;;;;;5074466;28;20955;-74
2021/08/17 00:55:00;;;;;;;6.03;2.33;;;;;;;;;;5075158;28;20543;-75
2021/08/17 00:57:27;;;;;;;8.43;2.50;;;;;;;;;;5073980;28;20459;-75
2021/08/17 00:59:54;;;;;;;6.57;2.80;;;;;;;;;;5074419;28;20922;-75
2021/08/17 01:02:23;;;;;;;8.17;3.03;;;;;;;;;;5074716;28;20440;-75
2021/08/17 01:04:50;;;;;;;12.30;4.80;;;;;;;;;;5074331;28;20536;-76
2021/08/17 01:07:17;;;;;;;14.83;3.70;;;;;;;;;;5072258;28;20498;-77
2021/08/17 01:09:45;;;;;;;5.03;2.57;;;;;;;;;;5073477;28;20937;-78
2021/08/17 01:12:12;;;;;;;8.40;2.93;;;;;;;;;;5073003;28;21013;-75
2021/08/17 01:14:39;;;;;;;9.20;2.90;;;;;;;;;;5073513;28;20447;-75
2021/08/17 01:17:06;;;;;;;8.60;2.70;;;;;;;;;;5074115;28;20989;-77
2021/08/17 01:19:35;;;;;;;9.40;2.87;;;;;;;;;;5074223;28;20534;-76
2021/08/17 01:22:02;;;;;;;8.40;3.60;;;;;;;;;;5073698;28;20515;-76
2021/08/17 01:24:30;;;;;;;21.23;3.57;;;;;;;;;;5074373;28;20433;-76
2021/08/17 01:26:58;;;;;;;7.23;2.80;;;;;;;;;;5074668;28;20484;-78
2021/08/17 01:29:25;;;;;;;10.23;3.77;;;;;;;;;;5073966;28;20449;-77
2021/08/17 01:31:53;;;;;;;6.70;2.40;;;;;;;;;;5074192;28;20448;-77
2021/08/17 01:34:20;;;;;;;4.40;2.20;;;;;;;;;;5073525;28;20440;-76
2021/08/17 01:36:47;;;;;;;9.97;2.90;;;;;;;;;;5073587;28;20452;-78
2021/08/17 01:39:15;;;;;;;12.33;4.00;;;;;;;;;;5072070;28;20441;-77
2021/08/17 01:41:42;;;;;;;10.53;3.03;;;;;;;;;;5074109;28;20441;-77
2021/08/17 01:44:12;;;;;;;3.63;2.60;;;;;;;;;;5073986;28;20440;-77
2021/08/17 01:46:40;;;;;;;11.60;3.43;;;;;;;;;;5073655;28;20469;-76
2021/08/17 01:49:07;;;;;;;4.63;3.40;;;;;;;;;;5074170;28;20531;-77
2021/08/17 01:51:35;;;;;;;3.80;2.33;;;;;;;;;;5073800;28;20447;-76
2021/08/17 01:54:03;;;;;;;5.20;2.23;;;;;;;;;;5073989;28;20452;-77
2021/08/17 01:56:30;;;;;;;11.17;3.73;;;;;;;;;;5073529;28;20446;-76
2021/08/17 01:58:58;;;;;;;14.27;3.03;;;;;;;;;;5072960;28;20452;-77
2021/08/17 02:01:26;;;;;;;7.33;3.90;;;;;;;;;;5073403;28;20926;-78
2021/08/17 02:03:53;;;;;;;4.47;2.93;;;;;;;;;;5073431;28;20455;-76
2021/08/17 02:06:21;;;;;;;9.93;3.73;;;;;;;;;;5073640;28;20472;-76
2021/08/17 02:08:48;;;;;;;12.23;3.10;;;;;;;;;;5071782;28;20451;-76
2021/08/17 02:11:15;;;;;;;16.03;3.33;;;;;;;;;;5073328;28;20931;-77
2021/08/17 02:13:42;;;;;;;8.13;3.10;;;;;;;;;;5073656;28;20437;-77
2021/08/17 02:16:09;;;;;;;9.27;3.20;;;;;;;;;;5073782;28;20527;-76
2021/08/17 02:18:38;;;;;;;10.90;3.53;;;;;;;;;;5073503;28;20447;-77
2021/08/17 02:21:05;;;;;;;6.43;3.93;;;;;;;;;;5072966;28;20555;-78
2021/08/17 02:23:33;;;;;;;7.10;2.93;;;;;;;;;;5073254;28;20472;-78
2021/08/17 02:26:00;;;;;;;10.83;3.07;;;;;;;;;;5073589;28;20443;-76
2021/08/17 02:28:27;;;;;;;8.90;3.30;;;;;;;;;;5073467;28;20441;-78
2021/08/17 02:30:55;;;;;;;5.77;2.90;;;;;;;;;;5073538;28;20442;-78
2021/08/17 02:33:22;;;;;;;13.30;2.60;;;;;;;;;;5072903;28;20459;-78
2021/08/17 02:35:51;;;;;;;12.00;3.00;;;;;;;;;;5073509;28;20441;-78
2021/08/17 02:38:18;;;;;;;12.47;3.47;;;;;;;;;;5072000;28;20449;-77
2021/08/17 02:40:45;;;;;;;9.83;2.50;;;;;;;;;;5072919;28;20949;-77
2021/08/17 02:43:12;;;;;;;7.50;4.07;;;;;;;;;;5073382;28;20801;-79
2021/08/17 02:45:40;;;;;;;13.17;3.43;;;;;;;;;;5073510;28;20448;-78
2021/08/17 02:48:07;;;;;;;3.73;2.60;;;;;;;;;;5073241;28;20476;-77
2021/08/17 02:50:35;;;;;;;8.80;3.47;;;;;;;;;;5073195;28;20433;-78
2021/08/17 02:53:03;;;;;;;6.20;2.50;;;;;;;;;;5073155;28;20459;-76
2021/08/17 02:55:30;;;;;;;5.53;2.50;;;;;;;;;;5073884;28;20794;-80
2021/08/17 02:58:01;;;;;;;10.93;3.20;;;;;;;;;;5072857;28;20444;-77
2021/08/17 03:00:28;;;;;;;5.33;3.40;;;;;;;;;;5072740;28;20483;-79
2021/08/17 03:02:55;;;;;;;6.97;3.33;;;;;;;;;;5072906;28;20960;-78
2021/08/17 03:05:22;;;;;;;13.60;2.83;;;;;;;;;;5073481;28;20445;-76
2021/08/17 03:07:51;;;;;;;10.13;3.30;;;;;;;;;;5073119;28;20476;-78
2021/08/17 03:10:20;;;;;;;7.37;3.83;;;;;;;;;;5089525;28;20530;-77
2021/08/17 03:12:47;;;;;;;5.70;2.87;;;;;;;;;;5093266;28;20442;-77
2021/08/17 03:15:14;;;;;;;9.90;3.63;;;;;;;;;;5093333;28;21015;-75
2021/08/17 03:17:41;;;;;;;7.43;3.03;;;;;;;;;;5093397;28;20450;-75
2021/08/17 03:20:10;;;;;;;7.70;3.20;;;;;;;;;;5093354;28;20442;-78
2021/08/17 03:22:37;;;;;;;10.73;3.83;;;;;;;;;;5092258;28;20992;-78
2021/08/17 03:25:05;;;;;;;8.83;3.23;;;;;;;;;;5092913;28;20439;-77
2021/08/17 03:27:34;;;;;;;4.13;2.70;;;;;;;;;;5092827;28;20483;-78
2021/08/17 03:30:01;;;;;;;6.47;2.60;;;;;;;;;;5093493;28;20447;-77
2021/08/17 03:32:28;;;;;;;12.13;3.10;;;;;;;;;;5096982;28;20442;-78
2021/08/17 03:34:55;;;;;;;16.80;3.50;;;;;;;;;;5096798;28;20447;-78
2021/08/17 03:37:23;;;;;;;12.10;3.17;;;;;;;;;;5096678;28;20451;-79
2021/08/17 03:39:50;;;;;;;5.50;2.60;;;;;;;;;;5081610;28;20453;-78
2021/08/17 03:42:17;;;;;;;11.87;3.33;;;;;;;;;;5075838;28;20933;-78
2021/08/17 03:44:45;;;;;;;8.83;2.90;;;;;;;;;;5075999;28;20965;-80
2021/08/17 03:47:13;;;;;;;11.03;4.00;;;;;;;;;;5076290;28;20482;-78
2021/08/17 03:49:40;;;;;;;10.53;4.40;;;;;;;;;;5075707;28;20936;-80
2021/08/17 03:52:07;;;;;;;7.50;3.17;;;;;;;;;;5076132;28;20437;-78
2021/08/17 03:54:34;;;;;;;7.83;3.37;;;;;;;;;;5076281;28;20938;-82
2021/08/17 03:57:02;;;;;;;9.30;3.57;;;;;;;;;;5075761;28;20934;-78
2021/08/17 03:59:29;;;;;;;10.80;3.87;;;;;;;;;;5075235;28;20485;-78
2021/08/17 04:01:57;;;;;;;6.67;3.17;;;;;;;;;;5075840;28;20443;-80
2021/08/17 04:04:24;;;;;;;16.83;4.23;;;;;;;;;;5075563;28;20444;-80
2021/08/17 04:06:52;;;;;;;14.80;3.80;;;;;;;;;;5075530;28;20472;-78
2021/08/17 04:09:19;;;;;;;8.03;3.60;;;;;;;;;;5075113;28;20858;-78
2021/08/17 04:11:46;;;;;;;5.40;2.70;;;;;;;;;;5076877;28;20444;-81
2021/08/17 04:14:13;;;;;;;12.13;4.17;;;;;;;;;;5078628;28;20527;-83
2021/08/17 04:16:40;;;;;;;7.83;3.10;;;;;;;;;;5077419;28;20450;-76
2021/08/17 04:19:09;;;;;;;5.77;2.40;;;;;;;;;;5075713;28;20441;-82
2021/08/17 04:21:36;;;;;;;14.23;3.77;;;;;;;;;;5074461;28;20453;-81
2021/08/17 04:24:03;;;;;;;10.10;3.77;;;;;;;;;;5075173;28;20969;-82
2021/08/17 04:26:31;;;;;;;9.03;3.57;;;;;;;;;;5078379;28;20448;-81
2021/08/17 04:28:58;;;;;;;6.67;3.30;;;;;;;;;;5076668;28;20443;-80
2021/08/17 04:31:25;;;;;;;11.87;3.47;;;;;;;;;;5075035;28;20964;-79
2021/08/17 04:33:52;;;;;;;4.83;2.90;;;;;;;;;;5074546;28;20802;-80
2021/08/17 04:36:21;;;;;;;12.17;4.13;;;;;;;;;;5074516;28;20452;-82
2021/08/17 04:38:48;;;;;;;14.63;4.97;;;;;;;;;;5074942;28;20444;-79
2021/08/17 04:41:15;;;;;;;8.90;4.27;;;;;;;;;;5073583;28;20444;-80
2021/08/17 04:43:42;;;;;;;11.70;4.43;;;;;;;;;;5075062;28;20440;-84
2021/08/17 04:46:10;;;;;;;9.47;4.43;;;;;;;;;;5075239;28;20447;-80
2021/08/17 04:48:37;;;;;;;7.37;4.43;;;;;;;;;;5074366;28;20476;-78
2021/08/17 04:51:04;;;;;;;7.60;4.17;;;;;;;;;;5074500;28;20922;-81
2021/08/17 04:53:33;;;;;;;8.87;4.10;;;;;;;;;;5076833;28;20483;-79
2021/08/17 04:56:00;;;;;;;10.87;4.03;;;;;;;;;;5075089;28;20440;-80
2021/08/17 04:58:27;;;;;;;12.27;4.70;;;;;;;;;;5074444;28;20444;-78
2021/08/17 05:00:54;;;;;;;13.50;5.00;;;;;;;;;;5074218;28;20448;-77
2021/08/17 05:03:23;;;;;;;10.73;4.20;;;;;;;;;;5074603;28;20442;-79
2021/08/17 05:05:50;;;;;;;11.20;5.83;;;;;;;;;;5074250;28;20436;-78
2021/08/17 05:08:17;;;;;;;9.30;4.87;;;;;;;;;;5073934;28;20475;-81
2021/08/17 05:10:46;;;;;;;6.27;4.33;;;;;;;;;;5072472;28;20439;-82
2021/08/17 05:13:13;;;;;;;11.10;5.30;;;;;;;;;;5074167;28;20433;-78
2021/08/17 05:15:40;;;;;;;10.60;5.00;;;;;;;;;;5074170;28;20532;-79
2021/08/17 05:18:07;;;;;;;9.30;4.67;;;;;;;;;;5074350;28;20444;-80
2021/08/17 05:20:34;;;;;;;16.63;6.13;;;;;;;;;;5074635;28;20444;-81
2021/08/17 05:23:02;;;;;;;8.83;5.30;;;;;;;;;;5074068;28;20484;-84
2021/08/17 05:25:29;;;;;;;12.83;5.77;;;;;;;;;;5073879;28;20437;-68
2021/08/17 05:27:57;;;;;;;12.20;5.53;;;;;;;;;;5074149;28;20475;-75
2021/08/17 05:30:25;;;;;;;9.77;5.13;;;;;;;;;;5073571;28;20459;-71
2021/08/17 05:32:52;;;;;;;10.43;6.33;;;;;;;;;;5074051;28;20453;-70
2021/08/17 05:35:19;;;;;;;9.00;5.77;;;;;;;;;;5073731;28;20446;-72
2021/08/17 05:37:47;;;;;;;10.23;4.97;;;;;;;;;;5073577;28;20448;-70
2021/08/17 05:40:14;;;;;;;14.77;5.50;;;;;;;;;;5071855;28;20480;-73
2021/08/17 05:42:41;;;;;;;9.03;5.50;;;;;;;;;;5073064;28;20440;-72
2021/08/17 05:45:11;;;;;;;10.47;5.90;;;;;;;;;;5073556;28;20447;-71
2021/08/17 05:47:42;;;;;;;10.90;6.10;;;;;;;;;;5073375;28;20472;-72
2021/08/17 05:50:10;;;;;;;12.87;6.03;;;;;;;;;;5073712;28;20443;-73
2021/08/17 05:52:59;;;;;;;7.67;4.80;;;;;;;;;;5072951;28;20846;-71
2021/08/17 05:55:26;;;;;;;11.53;6.60;;;;;;;;;;5073430;28;20444;-72
2021/08/17 05:57:57;;;;;;;11.77;6.43;;;;;;;;;;5073354;28;20444;-72
2021/08/17 06:00:26;;;;;;;12.97;6.83;;;;;;;;;;5073056;28;20448;-72
2021/08/17 06:02:53;;;;;;;20.63;6.60;;;;;;;;;;5073428;28;20771;-73
2021/08/17 06:05:21;;;;;;;19.53;6.73;;;;;;;;;;5073231;28;20447;-72
2021/08/17 06:07:48;;;;;;;15.30;6.70;;;;;;;;;;5073358;28;20479;-72
2021/08/17 06:10:15;;;;;;;13.87;5.60;;;;;;;;;;5072971;28;20458;-72
2021/08/17 06:12:43;;;;;;;8.93;5.67;;;;;;;;;;5071539;28;20463;-70
2021/08/17 06:15:10;;;;;;;9.47;5.50;;;;;;;;;;5073710;28;20531;-72
2021/08/17 06:17:39;;;;;;;14.83;7.00;;;;;;;;;;5073492;28;20444;-72
2021/08/17 06:20:07;;;;;;;14.07;7.63;;;;;;;;;;5073133;28;20453;-73
2021/08/17 06:22:34;;;;;;;10.80;6.73;;;;;;;;;;5072912;28;20476;-73
2021/08/17 06:25:02;;;;;;;10.30;6.07;;;;;;;;;;5072704;28;20453;-73
2021/08/17 06:27:29;;;;;;;11.30;7.87;;;;;;;;;;5073288;28;20475;-70
2021/08/17 06:29:56;;;;;;;11.27;6.03;;;;;;;;;;5073935;28;20440;-71
2021/08/17 06:32:24;;;;;;;11.57;6.00;;;;;;;;;;5073105;28;20449;-72
2021/08/17 06:34:52;;;;;;;12.07;6.20;;;;;;;;;;5073180;28;20438;-72
2021/08/17 06:37:19;;;;;;;14.00;6.00;;;;;;;;;;5072634;28;20942;-71
2021/08/17 06:39:46;;;;;;;9.40;5.73;;;;;;;;;;5073183;28;20440;-72
2021/08/17 06:42:14;;;;;;;13.30;7.07;;;;;;;;;;5071050;28;20949;-73
2021/08/17 06:44:41;;;;;;;10.60;6.43;;;;;;;;;;5072980;28;20468;-72
2021/08/17 06:47:08;;;;;;;13.43;6.63;;;;;;;;;;5073144;28;20449;-72
2021/08/17 06:49:35;;;;;;;14.10;6.57;;;;;;;;;;5072885;28;20530;-71
2021/08/17 06:52:04;;;;;;;15.63;5.83;;;;;;;;;;5072884;28;20462;-71
2021/08/17 06:54:31;;;;;;;11.97;5.90;;;;;;;;;;5072742;28;20449;-70
2021/08/17 06:56:58;;;;;;;14.63;7.17;;;;;;;;;;5073092;28;20783;-72
2021/08/17 06:59:26;;;;;;;11.90;6.77;;;;;;;;;;5073594;28;20450;-72
2021/08/17 07:01:53;;;;;;;16.43;6.67;;;;;;;;;;5072664;28;20451;-72
2021/08/17 07:04:20;;;;;;;12.47;7.03;;;;;;;;;;5073049;28;20438;-72
2021/08/17 07:06:47;;;;;;;10.40;7.00;;;;;;;;;;5075973;28;20537;-73
2021/08/17 07:09:16;;;;;;;13.00;7.70;;;;;;;;;;5076800;28;20586;-71
2021/08/17 07:11:43;;;;;;;12.30;7.30;;;;;;;;;;5076576;28;20445;-72
2021/08/17 07:14:10;;;;;;;17.33;8.60;;;;;;;;;;5075145;28;20444;-72
2021/08/17 07:16:38;;;;;;;15.10;7.70;;;;;;;;;;5076387;28;20441;-72
2021/08/17 07:19:06;;;;;;;12.27;7.40;;;;;;;;;;5076913;28;20814;-72
2021/08/17 07:21:33;;;;;;;12.60;7.17;;;;;;;;;;5074490;28;20918;-71
2021/08/17 07:24:02;;;;;;;15.10;8.27;;;;;;;;;;5076403;28;20473;-72
2021/08/17 07:26:30;;;;;;;15.57;8.50;;;;;;;;;;5076564;28;20498;-71
2021/08/17 07:28:57;;;;;;;17.50;8.80;;;;;;;;;;5076057;28;20469;-74
2021/08/17 07:31:25;;;;;;;11.80;7.23;;;;;;;;;;5075199;28;20502;-70
2021/08/17 07:33:52;;;;;;;16.23;8.50;;;;;;;;;;5074880;28;20521;-74
2021/08/17 07:36:19;;;;;;;15.10;8.63;;;;;;;;;;5075963;28;20446;-73
2021/08/17 07:38:46;;;;;;;15.90;7.33;;;;;;;;;;5076274;28;20453;-73
2021/08/17 07:41:13;;;;;;;12.37;6.37;;;;;;;;;;5076080;28;20535;-73
2021/08/17 07:43:42;;;;;;;15.33;8.03;;;;;;;;;;5076253;28;20861;-73
2021/08/17 07:46:09;;;;;;;11.43;7.60;;;;;;;;;;5075517;28;20478;-73
2021/08/17 07:48:36;;;;;;;14.63;7.40;;;;;;;;;;5075738;28;21034;-74
2021/08/17 07:51:04;;;;;;;15.37;8.90;;;;;;;;;;5073648;28;20441;-72
2021/08/17 07:53:31;;;;;;;16.40;7.50;;;;;;;;;;5075528;28;20449;-71
2021/08/17 07:55:58;;;;;;;15.20;7.67;;;;;;;;;;5075725;28;20447;-74
2021/08/17 07:58:25;;;;;;;18.77;7.73;;;;;;;;;;5075307;28;20562;-75
2021/08/17 08:00:54;;;;;;;19.83;9.97;;;;;;;;;;5075867;28;20447;-73
2021/08/17 08:03:21;;;;;;;15.97;9.20;;;;;;;;;;5075393;28;20450;-72
2021/08/17 08:05:49;;;;;;;16.63;10.53;;;;;;;;;;5075799;28;20446;-73
2021/08/17 08:08:16;;;;;;;18.27;8.70;;;;;;;;;;5076043;28;20483;-72
2021/08/17 08:10:43;;;;;;;16.83;9.40;;;;;;;;;;5075537;28;20541;-71
2021/08/17 08:13:10;;;;;;;23.53;11.20;;;;;;;;;;5075455;28;20459;-72
2021/08/17 08:15:38;;;;;;;21.53;11.67;;;;;;;;;;5075686;28;20760;-72
2021/08/17 08:18:07;;;;;;;17.77;9.80;;;;;;;;;;5075481;28;20476;-75
2021/08/17 08:20:35;;;;;;;19.90;10.53;;;;;;;;;;5075900;28;20459;-73
2021/08/17 08:23:05;;;;;;;18.20;10.83;;;;;;;;;;5073228;28;20508;-71
2021/08/17 08:25:32;;;;;;;16.67;8.13;;;;;;;;;;5075349;28;20429;-74
2021/08/17 08:28:00;;;;;;;23.80;11.30;;;;;;;;;;5075367;28;20930;-70
2021/08/17 08:33:13;;;;;;;22.63;12.40;;;;;;;;;;5066066;28;20443;-73
2021/08/17 08:35:40;;;;;;;27.93;13.97;;;;;;;;;;5074956;28;20464;-72
2021/08/17 08:38:07;;;;;;;19.43;12.37;;;;;;;;;;5075447;28;20444;-72
2021/08/17 08:40:34;;;;;;;21.80;11.50;;;;;;;;;;5075257;28;20538;-73
2021/08/17 08:43:02;;;;;;;27.80;12.33;;;;;;;;;;5074905;28;20436;-72
2021/08/17 08:45:29;;;;;;;22.03;13.37;;;;;;;;;;5075154;28;20460;-72
2021/08/17 08:47:56;;;;;;;25.40;13.73;;;;;;;;;;5074696;28;20448;-71
2021/08/17 08:50:25;;;;;;;26.90;14.23;;;;;;;;;;5075214;28;20440;-74
2021/08/17 08:52:52;;;;;;;25.90;12.10;;;;;;;;;;5073152;28;20493;-73
2021/08/17 08:55:19;;;;;;;25.40;13.57;;;;;;;;;;5074684;28;20814;-73
2021/08/17 08:57:46;;;;;;;26.43;13.37;;;;;;;;;;5075103;28;20544;-73
2021/08/17 09:00:14;;;;;;;21.93;12.47;;;;;;;;;;5074159;28;20451;-73
2021/08/17 09:02:41;;;;;;;23.83;13.50;;;;;;;;;;5074293;28;20474;-74
2021/08/17 09:05:09;;;;;;;17.57;12.17;;;;;;;;;;5074247;28;20447;-72
2021/08/17 09:07:39;;;;;;;31.10;13.67;;;;;;;;;;5074295;28;20442;-73
2021/08/17 09:10:07;;;;;;;25.93;13.23;;;;;;;;;;5074152;28;20476;-72
2021/08/17 09:12:35;;;;;;;30.20;12.80;;;;;;;;;;5073952;28;20452;-73
2021/08/17 09:15:06;;;;;;;25.83;13.43;;;;;;;;;;5074442;28;20537;-73
2021/08/17 09:17:33;;;;;;;34.33;15.63;;;;;;;;;;5074829;28;20432;-76
2021/08/17 09:20:00;;;;;;;26.60;14.13;;;;;;;;;;5074886;28;20455;-74
2021/08/17 09:22:29;;;;;;;22.63;13.03;;;;;;;;;;5072265;28;20480;-72
2021/08/17 09:24:59;;;;;;;22.37;13.60;;;;;;;;;;5073762;28;20440;-74
2021/08/17 09:27:27;;;;;;;21.30;9.30;;;;;;;;;;5073298;28;20958;-73
2021/08/17 09:30:02;;;;;;;22.53;14.00;;;;;;;;;;5073615;28;21012;-74
2021/08/17 09:32:29;;;;;;;22.97;12.60;;;;;;;;;;5073188;28;20902;-74
2021/08/17 09:34:57;;;;;;;19.23;10.23;;;;;;;;;;5072866;28;20446;-75
2021/08/17 09:37:27;;;;;;;24.70;13.00;;;;;;;;;;5073493;28;20442;-75
2021/08/17 09:39:55;;;;;;;27.37;15.27;;;;;;;;;;5073718;28;20438;-73
2021/08/17 09:42:25;;;;;;;22.97;14.20;;;;;;;;;;5074104;28;21024;-74
2021/08/17 09:45:16;;;;;;;28.73;15.73;;;;;;;;;;5074072;28;20447;-76
2021/08/17 09:47:44;;;;;;;23.40;13.90;;;;;;;;;;5058554;28;20473;-72
2021/08/17 09:50:26;;;;;;;19.53;12.67;;;;;;;;;;5074045;28;20968;-75
2021/08/17 09:53:07;;;;;;;20.70;12.90;;;;;;;;;;5072018;28;20845;-75
2021/08/17 09:55:40;;;;;;;20.87;12.00;;;;;;;;;;5073417;28;20774;-74
2021/08/17 09:58:18;;;;;;;27.63;15.87;;;;;;;;;;5073319;28;20589;-74
2021/08/17 10:00:45;;;;;;;28.80;16.37;;;;;;;;;;5073753;28;20433;-74
2021/08/17 10:03:13;;;;;;;30.57;16.00;;;;;;;;;;5073187;28;20451;-74
2021/08/17 10:05:40;;;;;;;26.10;15.20;;;;;;;;;;5073392;28;20441;-74
2021/08/17 10:08:11;;;;;;;25.23;15.70;;;;;;;;;;5073710;28;20506;-75
2021/08/17 10:10:38;;;;;;;29.60;16.30;;;;;;;;;;5073890;28;20476;-74
2021/08/17 10:13:05;;;;;;;25.17;16.87;;;;;;;;;;5073316;28;20523;-74
2021/08/17 10:15:34;;;;;;;33.03;18.83;;;;;;;;;;5073525;28;20788;-74
2021/08/17 10:18:01;;;;;;;34.13;18.00;;;;;;;;;;5073526;28;20442;-76
2021/08/17 10:20:29;;;;;;;29.40;18.80;;;;;;;;;;5073130;28;20451;-74
2021/08/17 10:22:56;;;;;;;28.87;19.43;;;;;;;;;;5071296;28;20480;-75
2021/08/17 10:25:24;;;;;;;31.83;18.20;;;;;;;;;;5073163;28;20441;-72
2021/08/17 10:27:52;;;;;;;28.27;20.10;;;;;;;;;;5073429;28;20532;-74
2021/08/17 10:30:21;;;;;;;33.43;19.60;;;;;;;;;;5073340;28;20502;-75
2021/08/17 10:32:57;;;;;;;26.93;18.20;;;;;;;;;;5073007;28;20491;-73
2021/08/17 10:35:59;;;;;;;24.53;13.77;;;;;;;;;;5073964;28;20778;-74
2021/08/17 10:38:35;;;;;;;27.37;17.53;;;;;;;;;;5073505;28;20569;-70
2021/08/17 10:41:05;;;;;;;31.70;17.37;;;;;;;;;;5077022;28;20450;-72
2021/08/17 10:43:56;;;;;;;23.00;15.60;;;;;;;;;;5077222;28;20788;-71
2021/08/17 10:46:39;;;;;;;22.57;12.67;;;;;;;;;;5077096;28;20534;-72
2021/08/17 10:49:23;;;;;;;27.63;16.97;;;;;;;;;;5077155;28;20468;-73
2021/08/17 10:51:52;;;;;;;27.80;16.20;;;;;;;;;;5076972;28;20438;-73
2021/08/17 10:54:19;;;;;;;31.90;16.57;;;;;;;;;;5075113;28;20467;-73
2021/08/17 10:56:47;;;;;;;25.40;15.47;;;;;;;;;;5076959;28;20433;-72
2021/08/17 10:59:15;;;;;;;25.83;16.27;;;;;;;;;;5076798;28;20440;-73
2021/08/17 11:01:43;;;;;;;27.43;17.50;;;;;;;;;;5076780;28;20447;-73
2021/08/17 11:04:19;;;;;;;27.03;15.90;;;;;;;;;;5077183;28;20443;-73
2021/08/17 11:06:47;;;;;;;24.97;15.67;;;;;;;;;;5077031;28;20428;-73
2021/08/17 11:09:15;;;;;;;19.33;12.27;;;;;;;;;;5076676;28;21052;-72
2021/08/17 11:11:44;;;;;;;26.50;14.50;;;;;;;;;;5076845;28;20428;-71
2021/08/17 11:14:12;;;;;;;24.90;14.73;;;;;;;;;;5076278;28;20732;-75
2021/08/17 11:16:53;;;;;;;29.07;15.60;;;;;;;;;;5076677;28;20442;-74
2021/08/17 11:19:23;;;;;;;22.50;13.90;;;;;;;;;;5076876;28;20497;-71
2021/08/17 11:21:50;;;;;;;23.40;13.37;;;;;;;;;;5076692;28;20858;-71
2021/08/17 11:24:22;;;;;;;25.03;14.30;;;;;;;;;;5074541;28;20506;-73
2021/08/17 11:26:53;;;;;;;21.63;13.67;;;;;;;;;;5076735;28;20436;-73
2021/08/17 11:29:28;;;;;;;23.87;13.63;;;;;;;;;;5076872;28;20499;-73
2021/08/17 11:31:56;;;;;;;21.93;13.30;;;;;;;;;;5076378;28;20475;-72
2021/08/17 11:34:25;;;;;;;25.77;13.80;;;;;;;;;;5074776;28;20438;-72
2021/08/17 11:36:53;;;;;;;19.50;12.10;;;;;;;;;;5074670;28;20451;-73
2021/08/17 11:39:21;;;;;;;16.23;11.10;;;;;;;;;;5076169;28;20448;-76
2021/08/17 11:41:49;;;;;;;20.13;13.37;;;;;;;;;;5076295;28;20445;-73
2021/08/17 11:44:17;;;;;;;22.87;13.73;;;;;;;;;;5075708;28;20438;-73
2021/08/17 11:46:44;;;;;;;24.23;14.00;;;;;;;;;;5075929;28;20503;-74
2021/08/17 11:49:21;;;;;;;22.80;15.53;;;;;;;;;;5075347;28;20522;-74
2021/08/17 11:51:57;;;;;;;28.37;13.43;;;;;;;;;;5075452;28;20439;-75
2021/08/17 11:54:25;;;;;;;20.30;14.10;;;;;;;;;;5074584;28;20463;-73
2021/08/17 11:56:56;;;;;;;23.57;14.20;;;;;;;;;;5075853;28;20440;-72
2021/08/17 11:59:24;;;;;;;20.33;11.70;;;;;;;;;;5076453;28;20789;-70
2021/08/17 12:02:01;;;;;;;19.37;11.73;;;;;;;;;;5075316;28;20448;-72
2021/08/17 12:04:28;;;;;;;23.03;15.00;;;;;;;;;;5075383;28;20444;-74
2021/08/17 12:07:09;;;;;;;21.93;13.27;;;;;;;;;;5075915;28;20444;-72
2021/08/17 12:09:38;;;;;;;21.87;12.80;;;;;;;;;;5075491;28;20989;-73
2021/08/17 12:12:06;;;;;;;19.77;11.17;;;;;;;;;;5076159;28;20441;-72
2021/08/17 12:14:33;;;;;;;15.90;10.90;;;;;;;;;;5075093;28;20443;-72
2021/08/17 12:17:00;;;;;;;18.50;12.90;;;;;;;;;;5075330;28;20441;-71
2021/08/17 12:19:28;;;;;;;22.70;10.87;;;;;;;;;;5075625;28;20876;-72
2021/08/17 12:21:56;;;;;;;17.10;11.70;;;;;;;;;;5075195;28;20528;-72
2021/08/17 12:24:26;;;;;;;17.90;11.70;;;;;;;;;;5075435;28;20445;-73
2021/08/17 12:26:54;;;;;;;14.53;11.60;;;;;;;;;;5074311;28;20445;-71
2021/08/17 12:29:24;;;;;;;19.30;12.60;;;;;;;;;;5074883;28;20478;-73
2021/08/17 12:31:51;;;;;;;19.33;13.10;;;;;;;;;;5075071;28;20441;-74
2021/08/17 12:34:19;;;;;;;18.30;12.83;;;;;;;;;;5075214;28;21005;-74
2021/08/17 12:36:47;;;;;;;17.90;12.40;;;;;;;;;;5075421;28;20529;-74
2021/08/17 12:39:15;;;;;;;14.43;10.40;;;;;;;;;;5074532;28;20988;-74
2021/08/17 12:41:49;;;;;;;17.27;12.80;;;;;;;;;;5075194;28;20437;-73
2021/08/17 12:44:17;;;;;;;14.30;9.27;;;;;;;;;;5075873;28;20422;-72
2021/08/17 12:47:04;;;;;;;16.53;12.50;;;;;;;;;;5075035;28;20524;-72
2021/08/17 12:49:42;;;;;;;14.40;10.00;;;;;;;;;;5074775;28;20469;-72
2021/08/17 12:52:36;;;;;;;16.57;12.03;;;;;;;;;;5074913;28;20794;-70
2021/08/17 12:55:07;;;;;;;15.73;9.70;;;;;;;;;;5074281;28;20427;-72
2021/08/17 12:57:37;;;;;;;14.00;10.50;;;;;;;;;;5073162;28;20520;-80
2021/08/17 13:00:06;;;;;;;13.83;10.20;;;;;;;;;;5074987;28;20441;-80
2021/08/17 13:02:34;;;;;;;12.70;9.90;;;;;;;;;;5073721;28;20469;-78
2021/08/17 13:05:01;;;;;;;14.80;10.40;;;;;;;;;;5074055;28;20451;-78
2021/08/17 13:07:28;;;;;;;14.00;9.93;;;;;;;;;;5074702;28;20914;-76
2021/08/17 13:09:58;;;;;;;20.10;11.20;;;;;;;;;;5074366;28;20567;-80
2021/08/17 13:12:26;;;;;;;13.20;9.93;;;;;;;;;;5075118;28;20941;-75
2021/08/17 13:14:55;;;;;;;19.90;14.07;;;;;;;;;;5074358;28;20480;-76
2021/08/17 13:17:23;;;;;;;16.80;13.20;;;;;;;;;;5073693;28;20947;-74
2021/08/17 13:19:50;;;;;;;19.30;14.47;;;;;;;;;;5073522;28;20465;-78
2021/08/17 13:22:18;;;;;;;22.70;14.67;;;;;;;;;;5073030;28;20590;-78
2021/08/17 13:24:46;;;;;;;20.80;15.70;;;;;;;;;;5073569;28;20835;-79
2021/08/17 13:27:13;;;;;;;24.83;17.00;;;;;;;;;;5071080;28;20961;-78
2021/08/17 13:29:40;;;;;;;15.40;12.90;;;;;;;;;;5073666;28;20478;-79
2021/08/17 13:32:10;;;;;;;15.10;12.53;;;;;;;;;;5074207;28;20443;-75
2021/08/17 13:34:37;;;;;;;16.67;14.90;;;;;;;;;;5074163;28;20436;-77
2021/08/17 13:37:07;;;;;;;15.40;13.20;;;;;;;;;;5073673;28;20523;-76
2021/08/17 13:39:34;;;;;;;25.00;18.47;;;;;;;;;;5073511;28;20511;-76
2021/08/17 13:42:01;;;;;;;19.73;17.00;;;;;;;;;;5074376;28;20479;-76
2021/08/17 13:44:29;;;;;;;22.67;16.70;;;;;;;;;;5074028;28;20441;-75
2021/08/17 13:46:56;;;;;;;28.90;19.23;;;;;;;;;;5074091;28;20839;-73
2021/08/17 13:49:25;;;;;;;27.40;19.73;;;;;;;;;;5073961;28;20470;-75
2021/08/17 13:51:52;;;;;;;20.83;16.77;;;;;;;;;;5073406;28;20441;-74
2021/08/17 13:54:19;;;;;;;25.53;18.30;;;;;;;;;;5073877;28;20485;-73
2021/08/17 13:56:46;;;;;;;28.67;21.50;;;;;;;;;;5073551;28;20447;-73
2021/08/17 13:59:14;;;;;;;26.60;20.23;;;;;;;;;;5072303;28;20441;-73
2021/08/17 14:01:42;;;;;;;29.93;20.00;;;;;;;;;;5074111;28;20437;-72
2021/08/17 14:04:09;;;;;;;26.53;19.10;;;;;;;;;;5073088;28;20919;-73
2021/08/17 14:06:38;;;;;;;24.63;19.87;;;;;;;;;;5073956;28;20441;-72
2021/08/17 14:09:06;;;;;;;25.87;20.63;;;;;;;;;;5073626;28;20441;-72
2021/08/17 14:11:34;;;;;;;22.10;15.50;;;;;;;;;;5073246;28;20478;-72
2021/08/17 14:14:01;;;;;;;20.60;15.63;;;;;;;;;;5072740;28;20931;-77
2021/08/17 14:16:29;;;;;;;22.97;16.10;;;;;;;;;;5072259;28;20532;-75
2021/08/17 14:18:57;;;;;;;22.07;15.77;;;;;;;;;;5073097;28;20866;-75
2021/08/17 14:21:25;;;;;;;20.93;16.33;;;;;;;;;;5073493;28;20449;-74
2021/08/17 14:23:53;;;;;;;12.43;10.90;;;;;;;;;;5073233;28;20557;-73
2021/08/17 14:26:22;;;;;;;18.83;13.93;;;;;;;;;;5072852;28;20503;-77
2021/08/17 14:28:50;;;;;;;18.10;14.67;;;;;;;;;;5071416;28;20521;-73
2021/08/17 14:31:17;;;;;;;22.43;15.03;;;;;;;;;;5073367;28;20480;-73
2021/08/17 14:33:44;;;;;;;17.30;15.23;;;;;;;;;;5073014;28;20944;-73
2021/08/17 14:36:12;;;;;;;20.40;15.80;;;;;;;;;;5072779;28;20480;-75
2021/08/17 14:38:39;;;;;;;20.90;18.10;;;;;;;;;;5073423;28;20473;-72